createdAt,value
2023-04-18T00:00:54.054Z,44.65
2023-04-18T00:01:54.125Z,45.42
2023-04-18T00:02:54.295Z,42.50
2023-04-18T00:03:54.230Z,44.13
2023-04-18T00:04:54.267Z,43.90
2023-04-18T00:05:54.198Z,45.04
2023-04-18T00:06:54.202Z,42.74
2023-04-18T00:07:54.250Z,43.54
2023-04-18T00:08:54.340Z,42.28
2023-04-18T00:09:54.313Z,43.04
2023-04-18T00:10:54.393Z,45.82
2023-04-18T00:11:54.405Z,44.10
2023-04-18T00:12:54.447Z,44.59
2023-04-18T00:13:54.465Z,45.54
2023-04-18T00:14:54.504Z,44.92
2023-04-18T00:15:54.565Z,47.00
2023-04-18T00:16:54.617Z,45.28
2023-04-18T00:17:54.661Z,43.02
2023-04-18T00:18:54.697Z,45.01
2023-04-18T00:19:55.186Z,43.85
2023-04-18T00:20:54.758Z,46.10
2023-04-18T00:21:54.818Z,43.58
2023-04-18T00:22:54.858Z,45.14
2023-04-18T00:23:54.891Z,44.43
2023-04-18T00:24:54.928Z,44.27
2023-04-18T00:25:54.990Z,44.91
2023-04-18T00:26:54.998Z,44.62
2023-04-18T00:27:55.051Z,46.20
2023-04-18T00:28:55.118Z,44.97
2023-04-18T00:29:55.169Z,45.59
2023-04-18T00:30:55.224Z,46.58
2023-04-18T00:31:55.254Z,46.73
2023-04-18T00:32:55.306Z,46.40
2023-04-18T00:33:55.369Z,45.33
2023-04-18T00:34:55.374Z,48.48
2023-04-18T00:35:55.409Z,47.52
2023-04-18T00:36:55.496Z,47.50
2023-04-18T00:37:55.497Z,44.22
2023-04-18T00:38:55.558Z,44.20
2023-04-18T00:39:55.614Z,44.70
2023-04-18T00:40:55.624Z,45.64
2023-04-18T00:41:55.660Z,45.05
2023-04-18T00:42:55.754Z,47.24
2023-04-18T00:43:55.746Z,46.82
2023-04-18T00:44:55.760Z,46.32
2023-04-18T00:45:55.908Z,48.70
2023-04-18T00:46:55.850Z,45.51
2023-04-18T00:47:55.928Z,46.33
2023-04-18T00:48:55.919Z,45.56
2023-04-18T00:49:55.989Z,44.39
2023-04-18T00:50:56.026Z,45.43
2023-04-18T00:51:56.110Z,47.23
2023-04-18T00:52:56.112Z,46.96
2023-04-18T00:53:56.147Z,44.42
2023-04-18T00:54:56.259Z,47.78
2023-04-18T00:55:56.274Z,44.80
2023-04-18T00:56:56.346Z,46.40
2023-04-18T00:57:56.342Z,48.10
2023-04-18T00:58:56.463Z,48.28
2023-04-18T00:59:56.468Z,48.38
2023-04-18T01:00:56.478Z,48.18
2023-04-18T01:01:56.659Z,45.65
2023-04-18T01:02:56.673Z,47.26
2023-04-18T01:03:56.673Z,45.89
2023-04-18T01:04:56.704Z,46.48
2023-04-18T01:05:56.709Z,47.22
2023-04-18T01:06:56.762Z,46.74
2023-04-18T01:07:56.757Z,48.39
2023-04-18T01:08:56.818Z,48.43
2023-04-18T01:09:56.873Z,44.68
2023-04-18T01:10:56.893Z,46.95
2023-04-18T01:11:56.953Z,45.17
2023-04-18T01:12:57.001Z,47.94
2023-04-18T01:13:57.065Z,46.98
2023-04-18T01:14:57.082Z,47.20
2023-04-18T01:15:57.133Z,45.54
2023-04-18T01:16:57.181Z,47.28
2023-04-18T01:17:57.332Z,46.11
2023-04-18T01:18:57.244Z,47.63
2023-04-18T01:19:57.327Z,46.75
2023-04-18T01:20:57.309Z,48.00
2023-04-18T01:21:57.341Z,44.52
2023-04-18T01:22:57.429Z,44.52
2023-04-18T01:23:57.524Z,47.38
2023-04-18T01:24:57.490Z,48.14
2023-04-18T01:25:57.519Z,47.31
2023-04-18T01:26:57.555Z,46.29
2023-04-18T01:27:57.681Z,46.14
2023-04-18T01:28:57.730Z,48.10
2023-04-18T01:29:57.696Z,46.61
2023-04-18T01:30:57.762Z,47.69
2023-04-18T01:31:57.744Z,46.49
2023-04-18T01:32:57.870Z,46.34
2023-04-18T01:33:57.855Z,45.81
2023-04-18T01:34:57.872Z,47.03
2023-04-18T01:35:57.960Z,45.75
2023-04-18T01:36:57.956Z,46.55
2023-04-18T01:37:57.991Z,47.93
2023-04-18T01:38:58.003Z,47.70
2023-04-18T01:39:58.074Z,47.33
2023-04-18T01:40:58.109Z,48.52
2023-04-18T01:41:58.182Z,46.50
2023-04-18T01:42:58.178Z,46.80
2023-04-18T01:43:58.244Z,46.35
2023-04-18T01:44:58.302Z,46.83
2023-04-18T01:45:58.377Z,46.22
2023-04-18T01:46:58.466Z,48.14
2023-04-18T01:47:58.479Z,48.38
2023-04-18T01:48:58.484Z,45.69
2023-04-18T01:49:58.555Z,46.56
2023-04-18T01:50:58.643Z,48.06
2023-04-18T01:51:58.671Z,45.84
2023-04-18T01:52:58.708Z,48.43
2023-04-18T01:53:58.773Z,49.16
2023-04-18T01:54:58.786Z,48.28
2023-04-18T01:55:58.823Z,47.39
2023-04-18T01:56:58.890Z,46.03
2023-04-18T01:57:58.940Z,48.30
2023-04-18T01:58:58.951Z,49.08
2023-04-18T01:59:59.014Z,49.34
2023-04-18T02:00:59.129Z,46.36
2023-04-18T02:01:59.127Z,48.23
2023-04-18T02:02:59.361Z,48.07
2023-04-18T02:03:59.348Z,47.68
2023-04-18T02:04:59.273Z,50.68
2023-04-18T02:05:59.305Z,46.08
2023-04-18T02:06:59.353Z,48.47
2023-04-18T02:07:59.419Z,47.44
2023-04-18T02:08:59.432Z,48.66
2023-04-18T02:09:59.495Z,46.84
2023-04-18T02:10:59.539Z,48.08
2023-04-18T02:11:59.653Z,46.30
2023-04-18T02:12:59.626Z,48.11
2023-04-18T02:13:59.721Z,47.79
2023-04-18T02:14:59.753Z,48.15
2023-04-18T02:15:59.879Z,48.81
2023-04-18T02:16:59.821Z,49.06
2023-04-18T02:17:59.941Z,47.90
2023-04-18T02:18:59.952Z,46.41
2023-04-18T02:19:59.978Z,49.20
2023-04-18T02:20:59.997Z,46.66
2023-04-18T02:22:00.130Z,48.20
2023-04-18T02:23:00.128Z,45.23
2023-04-18T02:24:00.201Z,47.43
2023-04-18T02:25:00.217Z,47.05
2023-04-18T02:26:00.237Z,49.03
2023-04-18T02:27:00.326Z,47.85
2023-04-18T02:28:00.349Z,47.93
2023-04-18T02:29:00.385Z,48.65
2023-04-18T02:30:00.498Z,47.72
2023-04-18T02:31:00.528Z,47.76
2023-04-18T02:32:00.541Z,49.12
2023-04-18T02:33:00.637Z,49.80
2023-04-18T02:34:00.625Z,49.91
2023-04-18T02:35:00.711Z,47.49
2023-04-18T02:36:00.751Z,45.31
2023-04-18T02:37:00.847Z,47.95
2023-04-18T02:38:00.860Z,49.01
2023-04-18T02:39:00.903Z,49.15
2023-04-18T02:40:00.944Z,48.44
2023-04-18T02:41:01.005Z,48.80
2023-04-18T02:42:01.045Z,46.34
2023-04-18T02:43:01.099Z,48.57
2023-04-18T02:44:01.179Z,48.24
2023-04-18T02:45:01.183Z,51.38
2023-04-18T02:46:01.301Z,48.08
2023-04-18T02:47:01.272Z,47.82
2023-04-18T02:48:01.376Z,49.04
2023-04-18T02:49:01.408Z,47.87
2023-04-18T02:50:01.506Z,50.94
2023-04-18T02:51:01.476Z,50.38
2023-04-18T02:52:01.536Z,50.33
2023-04-18T02:53:01.690Z,48.74
2023-04-18T02:54:01.631Z,47.67
2023-04-18T02:55:01.723Z,46.42
2023-04-18T02:56:01.725Z,46.95
2023-04-18T02:57:01.780Z,45.65
2023-04-18T02:58:01.869Z,50.81
2023-04-18T02:59:01.874Z,49.70
2023-04-18T03:00:02.069Z,49.26
2023-04-18T03:01:02.062Z,49.92
2023-04-18T03:02:02.138Z,49.27
2023-04-18T03:03:02.161Z,49.49
2023-04-18T03:04:02.122Z,47.98
2023-04-18T03:05:02.271Z,49.51
2023-04-18T03:06:02.260Z,49.55
2023-04-18T03:07:02.280Z,47.01
2023-04-18T03:08:02.354Z,47.85
2023-04-18T03:09:02.403Z,47.84
2023-04-18T03:10:02.467Z,48.84
2023-04-18T03:11:02.522Z,50.35
2023-04-18T03:12:02.523Z,45.98
2023-04-18T03:13:02.608Z,48.66
2023-04-18T03:14:02.648Z,47.60
2023-04-18T03:15:02.695Z,47.21
2023-04-18T03:16:02.796Z,51.47
2023-04-18T03:17:02.807Z,49.55
2023-04-18T03:18:02.919Z,48.88
2023-04-18T03:19:02.901Z,50.39
2023-04-18T03:20:03.020Z,48.69
2023-04-18T03:21:03.053Z,48.28
2023-04-18T03:22:03.053Z,49.40
2023-04-18T03:23:03.135Z,49.74
2023-04-18T03:24:03.187Z,49.07
2023-04-18T03:25:03.241Z,51.18
2023-04-18T03:26:03.304Z,49.93
2023-04-18T03:27:03.338Z,49.54
2023-04-18T03:28:03.416Z,48.85
2023-04-18T03:29:03.421Z,49.04
2023-04-18T03:30:03.523Z,50.03
2023-04-18T03:31:03.623Z,50.37
2023-04-18T03:32:03.602Z,48.81
2023-04-18T03:33:03.701Z,49.14
2023-04-18T03:34:03.698Z,49.84
2023-04-18T03:35:03.732Z,48.65
2023-04-18T03:36:03.817Z,50.09
2023-04-18T03:37:03.867Z,49.11
2023-04-18T03:38:03.928Z,49.01
2023-04-18T03:39:03.998Z,46.25
2023-04-18T03:40:04.051Z,48.00
2023-04-18T03:41:04.089Z,47.33
2023-04-18T03:42:04.166Z,49.99
2023-04-18T03:43:04.164Z,48.09
2023-04-18T03:44:04.247Z,48.90
2023-04-18T03:45:04.283Z,48.67
2023-04-18T03:46:04.418Z,48.75
2023-04-18T03:47:04.405Z,50.94
2023-04-18T03:48:04.620Z,48.30
2023-04-18T03:49:04.520Z,46.92
2023-04-18T03:50:04.543Z,47.79
2023-04-18T03:51:04.577Z,47.14
2023-04-18T03:52:04.664Z,48.06
2023-04-18T03:53:04.704Z,49.96
2023-04-18T03:54:04.754Z,47.04
2023-04-18T03:55:04.871Z,48.38
2023-04-18T03:56:04.893Z,47.29
2023-04-18T03:57:04.937Z,47.51
2023-04-18T03:58:05.005Z,48.54
2023-04-18T03:59:05.028Z,49.49
2023-04-18T04:00:05.073Z,50.79
2023-04-18T04:01:05.114Z,49.83
2023-04-18T04:02:05.347Z,47.40
2023-04-18T04:03:05.490Z,49.85
2023-04-18T04:04:05.579Z,51.20
2023-04-18T04:05:05.416Z,49.57
2023-04-18T04:06:05.418Z,48.19
2023-04-18T04:07:05.509Z,49.30
2023-04-18T04:08:05.571Z,48.56
2023-04-18T04:09:05.602Z,48.49
2023-04-18T04:10:05.641Z,47.19
2023-04-18T04:11:05.761Z,47.77
2023-04-18T04:12:05.807Z,48.36
2023-04-18T04:13:05.865Z,49.88
2023-04-18T04:14:05.866Z,47.99
2023-04-18T04:15:05.975Z,48.73
2023-04-18T04:16:06.012Z,47.10
2023-04-18T04:17:06.073Z,45.52
2023-04-18T04:18:06.189Z,45.86
2023-04-18T04:19:06.239Z,46.55
2023-04-18T04:20:06.238Z,48.88
2023-04-18T04:21:06.309Z,47.28
2023-04-18T04:22:06.364Z,47.18
2023-04-18T04:23:06.457Z,47.37
2023-04-18T04:24:06.462Z,47.59
2023-04-18T04:25:06.497Z,44.44
2023-04-18T04:26:06.598Z,44.29
2023-04-18T04:27:06.657Z,46.37
2023-04-18T04:28:06.749Z,42.88
2023-04-18T04:29:06.735Z,43.91
2023-04-18T04:30:06.805Z,42.61
2023-04-18T04:31:06.856Z,44.15
2023-04-18T04:32:07.073Z,42.91
2023-04-18T04:33:07.019Z,42.65
2023-04-18T04:34:07.085Z,40.55
2023-04-18T04:35:07.144Z,44.30
2023-04-18T04:36:07.196Z,43.90
2023-04-18T04:37:07.271Z,44.52
2023-04-18T04:38:07.319Z,41.91
2023-04-18T04:39:07.350Z,41.34
2023-04-18T04:40:07.385Z,42.78
2023-04-18T04:41:07.498Z,41.41
2023-04-18T04:42:07.546Z,42.46
2023-04-18T04:43:07.574Z,42.96
2023-04-18T04:44:07.647Z,39.83
2023-04-18T04:45:07.676Z,39.26
2023-04-18T04:46:07.846Z,42.01
2023-04-18T04:47:07.793Z,41.01
2023-04-18T04:48:07.926Z,40.68
2023-04-18T04:49:07.920Z,41.65
2023-04-18T04:50:07.952Z,40.19
2023-04-18T04:51:08.016Z,38.98
2023-04-18T04:52:08.077Z,40.30
2023-04-18T04:53:08.156Z,43.24
2023-04-18T04:54:08.245Z,41.87
2023-04-18T04:55:08.277Z,41.25
2023-04-18T04:56:08.297Z,40.36
2023-04-18T04:57:08.353Z,40.67
2023-04-18T04:58:08.448Z,37.90
2023-04-18T04:59:08.488Z,39.78
2023-04-18T05:00:08.585Z,38.40
2023-04-18T05:01:08.685Z,39.14
2023-04-18T05:02:08.805Z,39.52
2023-04-18T05:03:09.019Z,40.12
2023-04-18T05:04:08.943Z,40.43
2023-04-18T05:05:08.853Z,38.80
2023-04-18T05:06:08.934Z,38.55
2023-04-18T05:07:08.960Z,40.62
2023-04-18T05:08:08.997Z,39.36
2023-04-18T05:09:09.054Z,39.29
2023-04-18T05:10:09.115Z,40.60
2023-04-18T05:11:09.182Z,39.05
2023-04-18T05:12:09.294Z,37.64
2023-04-18T05:13:09.310Z,39.48
2023-04-18T05:14:09.394Z,40.39
2023-04-18T05:15:09.465Z,37.96
2023-04-18T05:16:09.577Z,38.20
2023-04-18T05:17:09.590Z,38.36
2023-04-18T05:18:09.696Z,36.78
2023-04-18T05:19:09.687Z,38.93
2023-04-18T05:20:09.728Z,35.07
2023-04-18T05:21:09.849Z,36.57
2023-04-18T05:22:09.860Z,35.46
2023-04-18T05:23:09.967Z,33.97
2023-04-18T05:24:09.975Z,35.68
2023-04-18T05:25:10.059Z,36.20
2023-04-18T05:26:10.090Z,35.49
2023-04-18T05:27:10.169Z,36.20
2023-04-18T05:28:10.200Z,34.27
2023-04-18T05:29:10.286Z,35.04
2023-04-18T05:30:10.315Z,34.24
2023-04-18T05:31:10.428Z,32.46
2023-04-18T05:32:10.412Z,32.69
2023-04-18T05:33:10.514Z,34.41
2023-04-18T05:34:10.574Z,32.56
2023-04-18T05:35:10.727Z,31.25
2023-04-18T05:36:10.671Z,28.92
2023-04-18T05:37:10.758Z,34.84
2023-04-18T05:38:10.853Z,35.46
2023-04-18T05:39:10.947Z,32.56
2023-04-18T05:40:10.981Z,27.44
2023-04-18T05:41:11.043Z,25.00
2023-04-18T05:42:11.044Z,25.10
2023-04-18T05:43:11.090Z,27.90
2023-04-18T05:44:11.295Z,23.98
2023-04-18T05:45:11.095Z,25.00
2023-04-18T05:46:11.374Z,34.01
2023-04-18T05:47:11.213Z,30.77
2023-04-18T05:48:11.576Z,27.32
2023-04-18T05:49:11.315Z,28.66
2023-04-18T05:50:12.323Z,27.45
2023-04-18T05:51:11.746Z,28.84
2023-04-18T05:52:11.369Z,29.07
2023-04-18T05:53:11.409Z,32.08
2023-04-18T05:54:11.505Z,29.72
2023-04-18T05:55:11.487Z,32.70
2023-04-18T05:56:11.450Z,33.64
2023-04-18T05:57:11.787Z,35.08
2023-04-18T05:58:11.455Z,38.94
2023-04-18T05:59:11.486Z,38.02
2023-04-18T06:00:11.527Z,42.33
2023-04-18T06:01:11.516Z,44.86
2023-04-18T06:02:11.715Z,46.41
2023-04-18T06:03:11.826Z,49.70
2023-04-18T06:04:11.902Z,57.43
2023-04-18T06:05:12.196Z,61.18
2023-04-18T06:06:11.819Z,61.56
2023-04-18T06:07:11.825Z,63.69
2023-04-18T06:08:11.874Z,70.52
2023-04-18T06:09:11.901Z,72.18
2023-04-18T06:10:11.953Z,72.14
2023-04-18T06:11:11.989Z,75.18
2023-04-18T06:12:12.020Z,78.41
2023-04-18T06:13:12.003Z,79.40
2023-04-18T06:14:12.316Z,85.52
2023-04-18T06:15:12.094Z,89.33
2023-04-18T06:16:12.144Z,93.62
2023-04-18T06:17:12.112Z,98.29
2023-04-18T06:18:12.079Z,101.72
2023-04-18T06:19:12.126Z,101.60
2023-04-18T06:20:12.177Z,99.45
2023-04-18T06:21:12.134Z,105.03
2023-04-18T06:22:12.193Z,107.54
2023-04-18T06:23:12.135Z,106.26
2023-04-18T06:24:12.449Z,108.80
2023-04-18T06:25:12.170Z,109.86
2023-04-18T06:26:12.271Z,112.00
2023-04-18T06:27:24.074Z,116.20
2023-04-18T06:28:13.208Z,116.52
2023-04-18T06:29:12.199Z,117.48
2023-04-18T06:30:12.126Z,119.66
2023-04-18T06:31:12.431Z,123.12
2023-04-18T06:32:12.136Z,129.82
2023-04-18T06:33:12.316Z,130.69
2023-04-18T06:34:12.410Z,132.07
2023-04-18T06:35:12.380Z,136.36
2023-04-18T06:36:12.137Z,139.92
2023-04-18T06:37:12.091Z,142.90
2023-04-18T06:38:12.090Z,122.24
2023-04-18T06:39:12.086Z,114.29
2023-04-18T06:40:12.110Z,106.99
2023-04-18T06:41:12.059Z,108.75
2023-04-18T06:42:12.067Z,104.45
2023-04-18T06:43:12.039Z,112.15
2023-04-18T06:44:12.030Z,111.69
2023-04-18T06:45:12.028Z,108.39
2023-04-18T06:46:12.062Z,109.39
2023-04-18T06:47:12.359Z,108.27
2023-04-18T06:48:12.040Z,107.43
2023-04-18T06:49:12.005Z,107.94
2023-04-18T06:50:12.039Z,112.19
2023-04-18T06:51:12.082Z,112.00
2023-04-18T06:52:12.031Z,110.97
2023-04-18T06:53:12.059Z,110.67
2023-04-18T06:54:12.206Z,115.15
2023-04-18T06:55:12.058Z,115.50
2023-04-18T06:56:12.049Z,118.49
2023-04-18T06:57:12.113Z,120.84
2023-04-18T06:58:12.006Z,125.60
2023-04-18T06:59:12.179Z,124.67
2023-04-18T07:00:12.164Z,125.14
2023-04-18T07:01:12.055Z,125.12
2023-04-18T07:02:12.472Z,131.75
2023-04-18T07:03:12.280Z,135.67
2023-04-18T07:04:12.518Z,137.27
2023-04-18T07:05:12.265Z,141.63
2023-04-18T07:06:12.330Z,145.69
2023-04-18T07:07:12.375Z,147.03
2023-04-18T07:08:12.446Z,152.32
2023-04-18T07:09:12.556Z,157.26
2023-04-18T07:10:12.567Z,161.08
2023-04-18T07:11:12.649Z,159.35
2023-04-18T07:12:12.737Z,161.38
2023-04-18T07:13:12.725Z,163.50
2023-04-18T07:14:12.946Z,163.76
2023-04-18T07:15:12.851Z,166.62
2023-04-18T07:16:12.862Z,166.47
2023-04-18T07:17:12.976Z,170.00
2023-04-18T07:18:16.119Z,172.80
2023-04-18T07:19:13.948Z,173.01
2023-04-18T07:20:13.799Z,173.59
2023-04-18T07:21:12.942Z,174.50
2023-04-18T07:22:13.008Z,175.73
2023-04-18T07:23:12.951Z,177.75
2023-04-18T07:24:13.290Z,181.30
2023-04-18T07:25:12.893Z,179.67
2023-04-18T07:26:12.910Z,178.62
2023-04-18T07:27:12.941Z,180.09
2023-04-18T07:28:12.874Z,180.48
2023-04-18T07:29:12.892Z,184.09
2023-04-18T07:30:13.053Z,183.77
2023-04-18T07:31:12.978Z,189.46
2023-04-18T07:32:13.006Z,190.07
2023-04-18T07:33:13.031Z,182.72
2023-04-18T07:34:13.263Z,167.54
2023-04-18T07:35:13.357Z,203.22
2023-04-18T07:36:13.183Z,250.26
2023-04-18T07:37:14.853Z,250.00
2023-04-18T07:38:13.216Z,249.18
2023-04-18T07:39:13.174Z,249.68
2023-04-18T07:40:13.174Z,248.30
2023-04-18T07:41:13.193Z,238.86
2023-04-18T07:42:13.212Z,222.50
2023-04-18T07:43:13.196Z,207.63
2023-04-18T07:44:13.455Z,192.70
2023-04-18T07:45:13.220Z,188.86
2023-04-18T07:46:13.288Z,182.43
2023-04-18T07:47:13.227Z,172.88
2023-04-18T07:48:13.260Z,163.57
2023-04-18T07:49:13.581Z,158.71
2023-04-18T07:50:13.486Z,151.03
2023-04-18T07:51:13.193Z,144.52
2023-04-18T07:52:13.195Z,139.58
2023-04-18T07:53:13.165Z,139.45
2023-04-18T07:54:13.179Z,138.76
2023-04-18T07:55:13.392Z,136.26
2023-04-18T07:56:13.452Z,131.49
2023-04-18T07:57:13.256Z,126.13
2023-04-18T07:58:13.508Z,120.54
2023-04-18T07:59:13.554Z,118.34
2023-04-18T08:00:13.385Z,118.30
2023-04-18T08:01:13.370Z,113.84
2023-04-18T08:02:13.409Z,114.88
2023-04-18T08:03:14.489Z,112.64
2023-04-18T08:04:13.620Z,108.16
2023-04-18T08:05:13.507Z,106.98
2023-04-18T08:06:13.513Z,103.33
2023-04-18T08:07:13.570Z,99.82
2023-04-18T08:08:13.609Z,98.58
2023-04-18T08:09:14.272Z,99.65
2023-04-18T08:10:13.747Z,99.48
2023-04-18T08:11:13.855Z,96.50
2023-04-18T08:12:14.862Z,91.89
2023-04-18T08:13:14.022Z,86.67
2023-04-18T08:14:14.023Z,86.59
2023-04-18T08:15:14.038Z,87.05
2023-04-18T08:16:16.830Z,85.33
2023-04-18T08:17:14.109Z,85.34
2023-04-18T08:18:14.081Z,82.06
2023-04-18T08:19:14.346Z,79.19
2023-04-18T08:20:14.157Z,71.99
2023-04-18T08:21:14.072Z,72.76
2023-04-18T08:22:14.035Z,70.08
2023-04-18T08:23:14.116Z,71.11
2023-04-18T08:24:14.053Z,72.51
2023-04-18T08:25:14.433Z,62.28
2023-04-18T08:26:14.048Z,44.56
2023-04-18T08:27:14.074Z,26.99
2023-04-18T08:28:14.069Z,25.55
2023-04-18T08:29:14.196Z,24.20
2023-04-18T08:30:14.046Z,25.75
2023-04-18T08:31:14.133Z,25.95
2023-04-18T08:32:13.965Z,27.81
2023-04-18T08:33:14.010Z,27.03
2023-04-18T08:34:13.946Z,25.00
2023-04-18T08:35:13.982Z,25.00
2023-04-18T08:36:14.023Z,26.70
2023-04-18T08:37:14.036Z,25.35
2023-04-18T08:38:13.984Z,27.79
2023-04-18T08:39:14.139Z,25.00
2023-04-18T08:40:13.987Z,28.33
2023-04-18T08:41:13.973Z,24.85
2023-04-18T08:42:13.967Z,30.58
2023-04-18T08:43:13.911Z,56.31
2023-04-18T08:44:14.949Z,72.51
2023-04-18T08:45:13.966Z,77.11
2023-04-18T08:46:13.888Z,71.81
2023-04-18T08:47:13.884Z,56.85
2023-04-18T08:48:13.978Z,54.85
2023-04-18T08:49:14.141Z,50.58
2023-04-18T08:50:13.866Z,48.81
2023-04-18T08:51:13.869Z,41.64
2023-04-18T08:52:13.918Z,38.56
2023-04-18T08:53:13.933Z,37.35
2023-04-18T08:54:13.823Z,37.39
2023-04-18T08:55:13.833Z,35.54
2023-04-18T08:56:13.830Z,37.80
2023-04-18T08:57:13.845Z,39.38
2023-04-18T08:58:13.891Z,35.64
2023-04-18T08:59:14.003Z,29.61
2023-04-18T09:00:13.853Z,36.76
2023-04-18T09:01:13.901Z,26.04
2023-04-18T09:02:13.789Z,24.95
2023-04-18T09:03:13.952Z,40.73
2023-04-18T09:04:13.759Z,48.52
2023-04-18T09:05:13.757Z,50.70
2023-04-18T09:06:13.983Z,56.50
2023-04-18T09:07:13.723Z,59.46
2023-04-18T09:08:13.801Z,61.04
2023-04-18T09:09:14.226Z,69.82
2023-04-18T09:10:13.753Z,75.21
2023-04-18T09:11:13.730Z,85.66
2023-04-18T09:12:13.747Z,81.97
2023-04-18T09:13:13.802Z,67.22
2023-04-18T09:14:13.967Z,65.82
2023-04-18T09:15:13.900Z,61.88
2023-04-18T09:16:13.900Z,60.91
2023-04-18T09:17:13.901Z,66.06
2023-04-18T09:18:13.956Z,61.30
2023-04-18T09:19:14.284Z,61.95
2023-04-18T09:20:14.011Z,64.96
2023-04-18T09:21:14.033Z,68.07
2023-04-18T09:22:14.123Z,67.57
2023-04-18T09:23:14.126Z,71.30
2023-04-18T09:24:14.494Z,78.16
2023-04-18T09:25:14.197Z,78.16
2023-04-18T09:26:14.222Z,71.80
2023-04-18T09:27:14.436Z,86.04
2023-04-18T09:28:14.357Z,95.95
2023-04-18T09:29:14.428Z,85.09
2023-04-18T09:30:14.375Z,85.40
2023-04-18T09:31:14.318Z,89.71
2023-04-18T09:32:14.380Z,95.55
2023-04-18T09:33:14.314Z,86.37
2023-04-18T09:34:14.642Z,83.72
2023-04-18T09:35:14.363Z,74.41
2023-04-18T09:36:14.428Z,75.28
2023-04-18T09:37:14.480Z,72.74
2023-04-18T09:38:14.419Z,72.41
2023-04-18T09:39:14.593Z,83.40
2023-04-18T09:40:14.639Z,85.86
2023-04-18T09:41:14.927Z,93.63
2023-04-18T09:42:14.542Z,95.79
2023-04-18T09:43:14.525Z,101.41
2023-04-18T09:44:15.561Z,101.35
2023-04-18T09:45:14.548Z,97.51
2023-04-18T09:46:14.604Z,103.41
2023-04-18T09:47:14.519Z,101.58
2023-04-18T09:48:14.630Z,96.72
2023-04-18T09:49:14.890Z,96.89
2023-04-18T09:50:14.577Z,96.79
2023-04-18T09:51:14.581Z,93.65
2023-04-18T09:52:14.578Z,90.49
2023-04-18T09:53:14.596Z,87.76
2023-04-18T09:54:15.143Z,92.73
2023-04-18T09:55:14.601Z,125.74
2023-04-18T09:56:14.664Z,111.11
2023-04-18T09:57:14.609Z,98.00
2023-04-18T09:58:15.419Z,84.92
2023-04-18T09:59:14.896Z,88.37
2023-04-18T10:00:14.673Z,79.59
2023-04-18T10:01:14.694Z,79.19
2023-04-18T10:02:14.693Z,66.89
2023-04-18T10:03:14.828Z,70.53
2023-04-18T10:04:14.925Z,74.78
2023-04-18T10:05:14.778Z,76.01
2023-04-18T10:06:14.721Z,67.42
2023-04-18T10:07:14.726Z,65.95
2023-04-18T10:08:14.798Z,67.80
2023-04-18T10:09:15.071Z,78.70
2023-04-18T10:10:14.800Z,78.70
2023-04-18T10:11:14.861Z,80.01
2023-04-18T10:12:14.817Z,79.74
2023-04-18T10:13:14.869Z,71.74
2023-04-18T10:14:15.026Z,69.85
2023-04-18T10:15:14.836Z,70.79
2023-04-18T10:16:15.071Z,70.45
2023-04-18T10:17:15.003Z,65.73
2023-04-18T10:18:15.046Z,46.49
2023-04-18T10:19:15.146Z,42.49
2023-04-18T10:20:14.979Z,30.50
2023-04-18T10:21:15.490Z,25.00
2023-04-18T10:22:15.107Z,25.53
2023-04-18T10:23:15.098Z,27.45
2023-04-18T10:24:15.298Z,28.21
2023-04-18T10:25:15.188Z,27.34
2023-04-18T10:26:15.290Z,25.94
2023-04-18T10:27:15.405Z,25.00
2023-04-18T10:28:15.431Z,25.00
2023-04-18T10:29:15.613Z,25.00
2023-04-18T10:30:15.508Z,32.79
2023-04-18T10:31:15.648Z,31.25
2023-04-18T10:32:15.921Z,32.24
2023-04-18T10:33:27.977Z,31.42
2023-04-18T10:34:16.755Z,30.33
2023-04-18T10:35:15.774Z,20.18
2023-04-18T10:36:15.697Z,18.68
2023-04-18T10:37:15.667Z,36.78
2023-04-18T10:38:16.434Z,36.92
2023-04-18T10:39:15.611Z,30.48
2023-04-18T10:40:15.710Z,27.74
2023-04-18T10:41:15.646Z,29.11
2023-04-18T10:42:15.632Z,30.88
2023-04-18T10:43:15.742Z,22.78
2023-04-18T10:44:16.252Z,26.12
2023-04-18T10:45:15.796Z,36.75
2023-04-18T10:46:30.424Z,26.06
2023-04-18T10:47:16.989Z,26.31
2023-04-18T10:48:15.966Z,23.66
2023-04-18T10:49:16.091Z,27.74
2023-04-18T10:50:15.857Z,22.33
2023-04-18T10:51:15.876Z,22.56
2023-04-18T10:52:15.848Z,32.97
2023-04-18T10:53:16.020Z,28.47
2023-04-18T10:54:16.007Z,30.67
2023-04-18T10:55:15.843Z,40.01
2023-04-18T10:56:15.839Z,30.00
2023-04-18T10:57:15.839Z,29.81
2023-04-18T10:58:15.849Z,29.42
2023-04-18T10:59:15.894Z,33.06
2023-04-18T11:00:15.978Z,36.15
2023-04-18T11:01:16.095Z,40.14
2023-04-18T11:02:16.129Z,32.77
2023-04-18T11:03:16.310Z,31.41
2023-04-18T11:04:16.426Z,34.07
2023-04-18T11:05:16.267Z,36.99
2023-04-18T11:06:16.358Z,40.72
2023-04-18T11:07:16.376Z,43.37
2023-04-18T11:08:16.426Z,45.96
2023-04-18T11:09:16.500Z,37.31
2023-04-18T11:10:16.605Z,29.86
2023-04-18T11:11:16.610Z,35.43
2023-04-18T11:12:16.701Z,37.04
2023-04-18T11:13:16.772Z,32.86
2023-04-18T11:14:17.036Z,31.45
2023-04-18T11:15:16.888Z,26.92
2023-04-18T11:16:17.041Z,27.49
2023-04-18T11:17:16.996Z,33.66
2023-04-18T11:18:17.063Z,33.65
2023-04-18T11:19:17.473Z,35.39
2023-04-18T11:20:17.940Z,47.23
2023-04-18T11:21:17.227Z,43.46
2023-04-18T11:22:17.307Z,38.88
2023-04-18T11:23:17.290Z,42.53
2023-04-18T11:24:17.433Z,41.71
2023-04-18T11:25:18.084Z,29.15
2023-04-18T11:26:17.474Z,26.74
2023-04-18T11:27:17.531Z,28.72
2023-04-18T11:28:17.596Z,31.56
2023-04-18T11:29:17.639Z,30.21
2023-04-18T11:30:18.011Z,35.64
2023-04-18T11:31:17.781Z,39.92
2023-04-18T11:32:17.993Z,39.77
2023-04-18T11:33:17.978Z,36.96
2023-04-18T11:34:17.943Z,35.97
2023-04-18T11:35:17.980Z,42.30
2023-04-18T11:36:18.138Z,36.25
2023-04-18T11:37:18.126Z,27.06
2023-04-18T11:38:18.500Z,36.06
2023-04-18T11:39:18.234Z,41.68
2023-04-18T11:40:18.367Z,30.90
2023-04-18T11:41:18.291Z,35.20
2023-04-18T11:42:18.349Z,38.72
2023-04-18T11:43:18.499Z,44.72
2023-04-18T11:44:18.475Z,47.52
2023-04-18T11:45:18.519Z,38.64
2023-04-18T11:46:18.690Z,38.30
2023-04-18T11:47:18.630Z,28.92
2023-04-18T11:48:18.742Z,32.27
2023-04-18T11:49:18.753Z,37.92
2023-04-18T11:50:18.808Z,40.69
2023-04-18T11:51:18.884Z,42.40
2023-04-18T11:52:18.941Z,35.05
2023-04-18T11:53:18.974Z,32.26
2023-04-18T11:54:19.046Z,37.05
2023-04-18T11:55:19.110Z,52.43
2023-04-18T11:56:19.163Z,79.74
2023-04-18T11:57:19.207Z,86.43
2023-04-18T11:58:19.233Z,93.58
2023-04-18T11:59:19.285Z,93.24
2023-04-18T12:00:19.356Z,99.23
2023-04-18T12:01:19.357Z,114.29
2023-04-18T12:02:19.455Z,115.51
2023-04-18T12:03:19.514Z,118.93
2023-04-18T12:04:20.054Z,117.62
2023-04-18T12:05:19.602Z,125.96
2023-04-18T12:06:19.644Z,120.88
2023-04-18T12:07:19.376Z,118.73
2023-04-18T12:08:19.512Z,120.54
2023-04-18T12:09:19.395Z,127.80
2023-04-18T12:10:19.404Z,124.24
2023-04-18T12:11:19.414Z,129.46
2023-04-18T12:12:19.416Z,134.85
2023-04-18T12:13:19.416Z,134.68
2023-04-18T12:14:19.437Z,138.83
2023-04-18T12:15:19.526Z,139.92
2023-04-18T12:16:19.571Z,144.06
2023-04-18T12:17:19.592Z,147.41
2023-04-18T12:18:19.624Z,148.21
2023-04-18T12:19:19.676Z,148.36
2023-04-18T12:20:19.748Z,150.69
2023-04-18T12:21:19.777Z,152.38
2023-04-18T12:22:19.846Z,157.07
2023-04-18T12:23:19.857Z,158.72
2023-04-18T12:24:19.966Z,160.97
2023-04-18T12:25:19.999Z,161.79
2023-04-18T12:26:20.026Z,163.47
2023-04-18T12:27:20.085Z,165.43
2023-04-18T12:28:20.160Z,166.20
2023-04-18T12:29:20.203Z,168.67
2023-04-18T12:30:20.254Z,169.09
2023-04-18T12:31:20.343Z,167.97
2023-04-18T12:32:20.430Z,170.95
2023-04-18T12:33:20.436Z,174.62
2023-04-18T12:34:20.485Z,176.01
2023-04-18T12:35:20.550Z,174.92
2023-04-18T12:36:20.617Z,178.23
2023-04-18T12:37:20.613Z,178.23
2023-04-18T12:38:20.661Z,174.90
2023-04-18T12:39:20.788Z,179.93
2023-04-18T12:40:20.779Z,182.02
2023-04-18T12:41:20.799Z,184.20
2023-04-18T12:42:20.845Z,183.65
2023-04-18T12:43:20.881Z,187.30
2023-04-18T12:44:20.931Z,186.93
2023-04-18T12:45:21.029Z,188.77
2023-04-18T12:46:21.048Z,189.80
2023-04-18T12:47:21.075Z,190.63
2023-04-18T12:48:21.044Z,191.98